Time;durP1;ratioP1;P1;durP2;ratioP2;P2;SDS_P1;SDS_P2;PMS_P1;PMS_P2;Temp;Humidity;BMP_temperature;BMP_pressure;BME280_temperature;BME280_humidity;BME280_pressure;Samples;Min_cycle;Max_cycle;Signal;HPM_P1;HPM_P2
2021/07/10 00:04:56;;;;;;;11.52;6.82;;;15.60;99.90;;;;;;12445042;28;20098;-39
2021/07/10 00:10:58;;;;;;;15.80;7.90;;;15.50;99.90;;;;;;12443478;28;20099;-38
2021/07/10 00:17:00;;;;;;;14.07;7.65;;;15.40;99.90;;;;;;12440594;28;20065;-39
2021/07/10 00:23:02;;;;;;;17.88;7.70;;;15.40;99.90;;;;;;12444143;28;20057;-39
2021/07/10 00:29:04;;;;;;;19.25;7.38;;;15.50;99.90;;;;;;12445633;28;20041;-40
2021/07/10 00:35:07;;;;;;;14.98;7.88;;;15.20;99.90;;;;;;12449067;28;20053;-40
2021/07/10 00:41:09;;;;;;;18.73;8.60;;;15.30;99.90;;;;;;12449195;28;20042;-39
2021/07/10 00:47:11;;;;;;;18.60;8.30;;;15.30;99.90;;;;;;12441448;28;20065;-39
2021/07/10 00:53:12;;;;;;;21.42;7.80;;;15.30;99.90;;;;;;12441524;28;20894;-39
2021/07/10 00:59:15;;;;;;;18.42;7.82;;;15.40;99.90;;;;;;12444315;28;20049;-38
2021/07/10 01:05:26;;;;;;;24.25;8.30;;;15.30;99.90;;;;;;12439281;28;20372;-39
2021/07/10 01:11:28;;;;;;;19.40;8.43;;;15.20;99.90;;;;;;12439022;28;20041;-38
2021/07/10 01:17:30;;;;;;;16.15;8.55;;;15.20;99.90;;;;;;12442360;28;20054;-38
2021/07/10 01:23:32;;;;;;;20.25;9.48;;;15.20;99.90;;;;;;12438018;28;20054;-38
2021/07/10 01:29:36;;;;;;;14.90;10.25;;;15.20;99.90;;;;;;12443320;28;20539;-39
2021/07/10 01:35:38;;;;;;;31.35;9.70;;;15.10;99.90;;;;;;12435213;28;20447;-39
2021/07/10 01:41:42;;;;;;;22.77;10.98;;;15.10;99.90;;;;;;12438260;28;20159;-39
2021/07/10 01:47:44;;;;;;;33.30;10.75;;;15.20;99.90;;;;;;12440773;28;20167;-40
2021/07/10 01:53:46;;;;;;;49.83;11.52;;;15.30;99.90;;;;;;12439282;28;20061;-39
2021/07/10 01:59:48;;;;;;;43.08;10.75;;;15.40;99.90;;;;;;12435698;28;20054;-38
2021/07/10 02:05:50;;;;;;;35.45;10.00;;;15.50;99.90;;;;;;12444395;28;20049;-40
2021/07/10 02:11:51;;;;;;;44.83;11.32;;;15.40;99.90;;;;;;12440418;28;20058;-39
2021/07/10 02:17:54;;;;;;;42.03;10.50;;;15.30;99.90;;;;;;12433381;28;20593;-38
2021/07/10 02:23:56;;;;;;;23.65;9.80;;;15.20;99.90;;;;;;12440362;28;20616;-38
2021/07/10 02:29:58;;;;;;;35.63;10.23;;;15.20;99.90;;;;;;12441660;28;20049;-40
2021/07/10 02:36:01;;;;;;;34.08;10.77;;;15.20;99.90;;;;;;12439975;28;20046;-38
2021/07/10 02:42:03;;;;;;;31.58;12.07;;;15.10;99.90;;;;;;12434890;28;20049;-39
2021/07/10 02:48:05;;;;;;;25.02;10.27;;;14.90;99.90;;;;;;12439689;28;20085;-39
2021/07/10 02:54:07;;;;;;;24.27;10.85;;;14.70;99.90;;;;;;12438887;28;20107;-40
2021/07/10 03:00:17;;;;;;;26.55;10.60;;;14.90;99.90;;;;;;12435867;28;20107;-39
2021/07/10 03:06:19;;;;;;;31.90;11.43;;;14.90;99.90;;;;;;12440480;28;20132;-38
2021/07/10 03:12:21;;;;;;;34.15;12.57;;;14.80;99.90;;;;;;12435364;28;20041;-39
2021/07/10 03:18:23;;;;;;;30.55;13.57;;;14.70;99.90;;;;;;12434084;28;20099;-41
2021/07/10 03:24:24;;;;;;;25.58;12.40;;;14.40;99.90;;;;;;12433018;28;20050;-39
2021/07/10 03:30:27;;;;;;;29.45;12.98;;;14.40;99.90;;;;;;12438764;28;20477;-38
2021/07/10 03:36:29;;;;;;;39.63;12.90;;;14.50;99.90;;;;;;12445009;28;20584;-38
2021/07/10 03:42:30;;;;;;;43.30;13.90;;;14.30;99.90;;;;;;12433693;28;20057;-39
2021/07/10 03:48:32;;;;;;;29.65;13.25;;;14.00;99.90;;;;;;12437354;28;20053;-40
2021/07/10 03:54:34;;;;;;;31.83;13.50;;;13.70;99.90;;;;;;12440845;28;20046;-39
2021/07/10 04:00:36;;;;;;;33.13;12.48;;;13.90;99.90;;;;;;12435903;28;20077;-38
2021/07/10 04:06:39;;;;;;;30.38;14.07;;;13.80;99.90;;;;;;12445944;28;20383;-38
2021/07/10 04:12:43;;;;;;;27.90;14.27;;;13.60;99.90;;;;;;12447103;28;20054;-38
2021/07/10 04:18:45;;;;;;;27.23;14.10;;;13.50;99.90;;;;;;12447781;28;20053;-39
2021/07/10 04:24:47;;;;;;;22.90;14.68;;;13.70;99.90;;;;;;12445415;28;20797;-40
2021/07/10 04:30:49;;;;;;;20.20;14.60;;;13.80;99.90;;;;;;12445172;28;20049;-39
2021/07/10 04:36:51;;;;;;;24.50;15.65;;;14.00;99.90;;;;;;12447310;28;20112;-38
2021/07/10 04:42:54;;;;;;;27.45;14.60;;;14.00;99.90;;;;;;12449760;28;20061;-40
2021/07/10 04:48:55;;;;;;;30.55;15.30;;;14.20;99.90;;;;;;12452474;28;20056;-39
2021/07/10 04:54:57;;;;;;;22.13;14.48;;;14.20;99.90;;;;;;12438623;28;20062;-39
2021/07/10 05:00:59;;;;;;;18.60;14.65;;;14.50;99.90;;;;;;12444919;28;20054;-41
2021/07/10 05:07:02;;;;;;;19.33;15.25;;;14.70;99.90;;;;;;12439919;28;20060;-39
2021/07/10 05:13:04;;;;;;;24.38;14.68;;;14.80;99.90;;;;;;12446541;28;20061;-40
2021/07/10 05:19:06;;;;;;;21.52;15.55;;;14.90;99.90;;;;;;12437217;28;20065;-39
2021/07/10 05:25:10;;;;;;;18.13;14.43;;;15.00;99.90;;;;;;12440110;28;20058;-41
2021/07/10 05:31:12;;;;;;;27.63;14.57;;;15.10;99.90;;;;;;12444536;28;20106;-39
2021/07/10 05:37:14;;;;;;;18.95;15.10;;;15.20;99.90;;;;;;12440883;28;20049;-40
2021/07/10 05:43:15;;;;;;;19.35;14.38;;;15.30;99.90;;;;;;12440579;28;20127;-39
2021/07/10 05:49:17;;;;;;;21.08;14.98;;;15.50;99.90;;;;;;12439444;28;20761;-39
2021/07/10 05:55:19;;;;;;;18.25;15.07;;;15.60;99.90;;;;;;12439087;28;20053;-40
2021/07/10 06:01:21;;;;;;;27.17;17.05;;;15.80;99.90;;;;;;12439034;28;20033;-39
2021/07/10 06:07:24;;;;;;;19.30;16.42;;;15.90;99.90;;;;;;12439675;28;20050;-38
2021/07/10 06:13:25;;;;;;;18.83;15.45;;;16.00;99.90;;;;;;12437153;28;20049;-40
2021/07/10 06:19:27;;;;;;;21.00;16.00;;;16.40;99.90;;;;;;12432804;28;20053;-38
2021/07/10 06:25:29;;;;;;;20.05;15.75;;;16.60;99.90;;;;;;12441164;28;20061;-38
2021/07/10 06:31:31;;;;;;;20.98;15.82;;;16.80;99.90;;;;;;12439145;28;20053;-39
2021/07/10 06:37:33;;;;;;;19.25;15.05;;;16.80;99.90;;;;;;12439746;28;20483;-40
2021/07/10 06:43:35;;;;;;;18.73;15.40;;;16.90;99.90;;;;;;12437226;28;20746;-40
2021/07/10 06:49:37;;;;;;;15.90;13.50;;;17.00;99.90;;;;;;12436081;28;20045;-40
2021/07/10 06:55:39;;;;;;;18.58;12.93;;;17.00;99.90;;;;;;12436379;28;20091;-38
2021/07/10 07:01:41;;;;;;;19.58;15.05;;;17.00;99.90;;;;;;12439154;28;20053;-39
2021/07/10 07:07:43;;;;;;;16.38;12.63;;;17.00;99.90;;;;;;12434396;28;20104;-41
2021/07/10 07:13:45;;;;;;;14.90;11.30;;;17.10;99.90;;;;;;12432403;28;20046;-39
2021/07/10 07:19:47;;;;;;;18.17;12.73;;;17.10;99.90;;;;;;12434503;28;20049;-39
2021/07/10 07:25:48;;;;;;;14.90;11.27;;;17.20;99.90;;;;;;12435794;28;20099;-41
2021/07/10 07:31:50;;;;;;;15.77;12.00;;;17.30;99.90;;;;;;12439924;28;20053;-39
2021/07/10 07:37:52;;;;;;;15.90;11.43;;;17.30;99.90;;;;;;12441109;28;20668;-40
2021/07/10 07:43:54;;;;;;;18.13;14.20;;;17.60;99.90;;;;;;12441408;28;20080;-40
2021/07/10 07:49:56;;;;;;;19.10;13.13;;;17.60;99.90;;;;;;12435793;28;20053;-40
2021/07/10 07:55:58;;;;;;;17.90;12.88;;;17.90;99.90;;;;;;12442863;28;20091;-40
2021/07/10 08:02:00;;;;;;;19.13;14.60;;;17.90;99.90;;;;;;12447401;28;20061;-39
2021/07/10 08:08:02;;;;;;;18.80;15.50;;;18.00;99.90;;;;;;12454369;28;20598;-41
2021/07/10 08:14:04;;;;;;;21.02;16.65;;;18.10;99.90;;;;;;12444062;28;20924;-41
2021/07/10 08:20:07;;;;;;;19.13;15.35;;;18.30;99.90;;;;;;12444443;28;20049;-40
2021/07/10 08:26:10;;;;;;;19.70;15.32;;;18.50;99.90;;;;;;12453014;28;20567;-43
2021/07/10 08:32:12;;;;;;;20.70;15.77;;;18.60;99.90;;;;;;12433361;28;20053;-40
2021/07/10 08:38:14;;;;;;;21.90;16.42;;;18.70;99.90;;;;;;12435975;28;20479;-39
2021/07/10 08:44:16;;;;;;;20.20;15.43;;;19.00;99.90;;;;;;12435321;28;20546;-39
2021/07/10 08:50:19;;;;;;;21.25;15.00;;;19.30;99.90;;;;;;12433458;28;20053;-39
2021/07/10 08:56:23;;;;;;;20.88;14.80;;;19.50;99.90;;;;;;12447664;28;20386;-39
2021/07/10 09:02:25;;;;;;;18.52;14.63;;;19.70;99.90;;;;;;12435903;28;20050;-39
2021/07/10 09:08:30;;;;;;;17.10;13.45;;;19.90;99.90;;;;;;12436353;28;20083;-41
2021/07/10 09:14:32;;;;;;;18.33;13.07;;;20.00;99.90;;;;;;12434902;28;20053;-40
2021/07/10 09:20:36;;;;;;;18.67;13.02;;;20.10;99.90;;;;;;12442474;28;20073;-40
2021/07/10 09:26:43;;;;;;;;;;;20.30;99.90;;;;;;12434558;28;20127;-42
2021/07/10 09:32:45;;;;;;;16.85;11.52;;;20.30;99.90;;;;;;12434768;28;19930;-40
2021/07/10 09:38:52;;;;;;;15.77;11.98;;;20.60;99.90;;;;;;12432972;28;20042;-39
2021/07/10 09:44:55;;;;;;;13.48;10.52;;;21.00;99.90;;;;;;12433721;28;20172;-39
2021/07/10 09:51:25;;;;;;;16.83;11.63;;;20.80;99.90;;;;;;12440920;28;20136;-40
2021/07/10 09:57:29;;;;;;;14.27;11.38;;;21.10;99.90;;;;;;12440327;28;20084;-40
2021/07/10 10:03:32;;;;;;;12.75;9.85;;;21.60;99.90;;;;;;12433367;28;20682;-41
2021/07/10 10:09:34;;;;;;;15.80;10.20;;;21.50;99.90;;;;;;12437366;28;20152;-40
2021/07/10 10:15:51;;;;;;;15.95;10.52;;;20.80;99.90;;;;;;12434310;28;20541;-40
2021/07/10 10:21:55;;;;;;;15.00;10.27;;;20.80;99.90;;;;;;12430570;28;20072;-41
2021/07/10 10:27:58;;;;;;;14.60;9.98;;;20.90;99.90;;;;;;12438220;28;20104;-39
2021/07/10 10:34:01;;;;;;;13.45;9.18;;;21.40;99.90;;;;;;12439478;28;20107;-40
2021/07/10 10:40:07;;;;;;;11.87;8.37;;;21.30;99.90;;;;;;12438214;28;20586;-40
2021/07/10 10:46:14;;;;;;;13.80;9.63;;;21.20;99.90;;;;;;12437042;28;20046;-40
2021/07/10 10:52:25;;;;;;;12.80;9.82;;;20.90;99.90;;;;;;12437061;28;20053;-40
2021/07/10 10:58:26;;;;;;;13.90;9.40;;;20.70;99.90;;;;;;12434643;28;20107;-40
2021/07/10 11:04:44;;;;;;;11.98;8.18;;;20.80;99.90;;;;;;12432428;28;20494;-40
2021/07/10 11:10:56;;;;;;;10.68;8.80;;;21.00;99.90;;;;;;12432918;28;20049;-40
2021/07/10 11:17:06;;;;;;;13.27;9.73;;;21.60;99.90;;;;;;12443995;28;20065;-40
2021/07/10 11:23:27;;;;;;;10.73;8.40;;;21.50;99.90;;;;;;12443859;28;20161;-41
2021/07/10 11:29:30;;;;;;;12.55;9.30;;;21.70;99.90;;;;;;12443188;28;20045;-40
2021/07/10 11:35:34;;;;;;;11.70;9.75;;;21.90;99.90;;;;;;12437629;28;20467;-40
2021/07/10 11:41:35;;;;;;;12.35;9.15;;;21.70;99.90;;;;;;12445801;28;20045;-39
2021/07/10 11:47:52;;;;;;;10.68;8.13;;;21.60;99.90;;;;;;12446469;28;20042;-40
2021/07/10 11:53:57;;;;;;;12.05;8.80;;;21.60;99.90;;;;;;12447372;28;20662;-40
2021/07/10 11:59:59;;;;;;;9.82;8.45;;;21.40;99.90;;;;;;12447358;28;20569;-39
2021/07/10 12:06:02;;;;;;;12.00;8.75;;;21.40;99.90;;;;;;12447563;28;20128;-40
2021/07/10 12:12:04;;;;;;;11.30;8.15;;;21.60;99.90;;;;;;12446468;28;20053;-41
2021/07/10 12:18:09;;;;;;;11.95;8.32;;;21.90;99.90;;;;;;12445439;28;20058;-40
2021/07/10 12:24:11;;;;;;;10.05;7.72;;;21.90;99.90;;;;;;12446459;28;20371;-40
2021/07/10 12:30:13;;;;;;;11.10;8.10;;;21.90;99.90;;;;;;12449338;28;20213;-41
2021/07/10 12:36:17;;;;;;;10.63;6.32;;;21.70;99.90;;;;;;12451255;28;20053;-40
2021/07/10 12:42:19;;;;;;;14.07;7.00;;;21.60;99.90;;;;;;12446097;28;20057;-40
2021/07/10 12:48:20;;;;;;;11.10;8.25;;;21.70;99.90;;;;;;12447124;28;20053;-40
2021/07/10 12:54:41;;;;;;;10.80;7.90;;;22.00;99.90;;;;;;12454809;28;20038;-40
2021/07/10 13:00:43;;;;;;;34.63;10.32;;;22.10;99.90;;;;;;12447598;28;20050;-42
2021/07/10 13:06:46;;;;;;;9.50;7.32;;;22.20;99.90;;;;;;12449170;28;20494;-41
2021/07/10 13:12:51;;;;;;;10.50;7.15;;;22.60;99.90;;;;;;12440598;28;20456;-40
2021/07/10 13:19:00;;;;;;;9.57;7.47;;;22.60;99.90;;;;;;12444615;28;20049;-41
2021/07/10 13:25:12;;;;;;;10.50;8.10;;;22.30;99.90;;;;;;12446787;28;20079;-41
2021/07/10 13:31:16;;;;;;;12.50;8.13;;;22.10;99.90;;;;;;12447531;28;20045;-39
2021/07/10 13:37:24;;;;;;;18.98;8.35;;;22.10;99.90;;;;;;12448615;28;20049;-40
2021/07/10 13:43:26;;;;;;;10.73;8.40;;;21.80;99.90;;;;;;12444255;28;20049;-40
2021/07/10 13:49:35;;;;;;;8.98;7.50;;;21.60;99.90;;;;;;12440619;28;20041;-39
2021/07/10 13:55:37;;;;;;;12.82;7.63;;;21.50;99.90;;;;;;12440149;28;20088;-41
2021/07/10 14:01:39;;;;;;;12.48;7.32;;;21.50;99.90;;;;;;12441128;28;20464;-39
2021/07/10 14:07:53;;;;;;;9.18;6.88;;;21.50;99.90;;;;;;12441790;28;20052;-40
2021/07/10 14:13:55;;;;;;;9.40;6.28;;;21.30;99.90;;;;;;12438201;28;20092;-42
2021/07/10 14:19:57;;;;;;;10.55;7.53;;;21.20;99.90;;;;;;12438899;28;20054;-41
2021/07/10 14:25:59;;;;;;;10.57;7.45;;;21.20;99.90;;;;;;12438034;28;20053;-41
2021/07/10 14:32:01;;;;;;;12.57;7.63;;;21.20;99.90;;;;;;12441017;28;20045;-41
2021/07/10 14:38:05;;;;;;;8.48;6.85;;;21.30;99.90;;;;;;12436834;28;20512;-42
2021/07/10 14:44:07;;;;;;;9.90;6.45;;;21.30;99.90;;;;;;12437427;28;20057;-42
2021/07/10 14:50:11;;;;;;;10.88;7.18;;;21.20;99.90;;;;;;12444277;28;20103;-43
2021/07/10 14:56:13;;;;;;;14.13;7.20;;;21.20;99.90;;;;;;12444044;28;20083;-43
2021/07/10 15:02:15;;;;;;;7.72;6.68;;;21.10;99.90;;;;;;12438824;28;20060;-45
2021/07/10 15:08:17;;;;;;;11.05;7.88;;;21.20;99.90;;;;;;12441649;28;20054;-44
2021/07/10 15:14:19;;;;;;;11.38;7.90;;;21.60;99.90;;;;;;12438740;28;20851;-43
2021/07/10 15:20:22;;;;;;;8.48;6.82;;;21.70;99.90;;;;;;12442253;28;20053;-44
2021/07/10 15:26:24;;;;;;;9.43;7.05;;;22.10;99.90;;;;;;12439372;28;20053;-44
2021/07/10 15:32:27;;;;;;;9.98;6.72;;;22.40;99.90;;;;;;12439580;28;20546;-43
2021/07/10 15:38:29;;;;;;;10.52;7.72;;;22.20;99.90;;;;;;12440902;28;20056;-45
2021/07/10 15:44:31;;;;;;;11.30;8.30;;;21.70;99.90;;;;;;12439988;28;20058;-44
2021/07/10 15:50:33;;;;;;;9.80;8.43;;;21.30;99.90;;;;;;12442199;28;20211;-43
2021/07/10 15:56:36;;;;;;;10.82;8.13;;;21.20;99.90;;;;;;12439020;28;20049;-42
2021/07/10 16:02:38;;;;;;;10.03;8.27;;;21.10;99.90;;;;;;12447630;28;20119;-42
2021/07/10 16:08:40;;;;;;;9.63;7.47;;;20.90;99.90;;;;;;12448913;28;20103;-40
2021/07/10 16:14:42;;;;;;;9.23;7.75;;;20.80;99.90;;;;;;12432542;28;20362;-41
2021/07/10 16:20:44;;;;;;;11.88;7.40;;;20.70;99.90;;;;;;12447895;28;20083;-40
2021/07/10 16:26:49;;;;;;;11.77;7.60;;;20.70;99.90;;;;;;12448901;28;20046;-41
2021/07/10 16:32:55;;;;;;;10.00;7.95;;;20.70;99.90;;;;;;12447379;28;20037;-42
2021/07/10 16:38:57;;;;;;;9.82;7.40;;;20.70;99.90;;;;;;12452593;28;20128;-41
2021/07/10 16:44:59;;;;;;;9.02;6.65;;;20.70;99.90;;;;;;12449384;28;20049;-41
2021/07/10 16:51:01;;;;;;;10.30;7.07;;;20.90;99.90;;;;;;12447624;28;20042;-42
2021/07/10 16:57:03;;;;;;;10.52;7.55;;;21.00;99.90;;;;;;12450064;28;20542;-43
2021/07/10 17:03:05;;;;;;;11.45;6.68;;;21.00;99.90;;;;;;12447348;28;20122;-42
2021/07/10 17:09:10;;;;;;;10.48;6.93;;;21.20;99.90;;;;;;12450359;28;20053;-42
2021/07/10 17:15:13;;;;;;;9.25;6.75;;;21.30;99.90;;;;;;12452032;28;20041;-41
2021/07/10 17:21:15;;;;;;;10.02;7.60;;;21.30;99.90;;;;;;12447542;28;20057;-42
2021/07/10 17:27:17;;;;;;;10.25;7.40;;;21.20;99.90;;;;;;12447001;28;20080;-40
2021/07/10 17:33:19;;;;;;;12.13;7.15;;;21.20;99.90;;;;;;12445989;28;20069;-41
2021/07/10 17:39:21;;;;;;;8.95;6.90;;;21.30;99.90;;;;;;12449664;28;20049;-41
2021/07/10 17:45:23;;;;;;;10.23;7.40;;;21.30;99.90;;;;;;12451485;28;20275;-42
2021/07/10 17:51:26;;;;;;;8.20;6.82;;;20.90;99.90;;;;;;12447123;28;20050;-44
2021/07/10 17:57:27;;;;;;;13.10;8.43;;;20.50;99.90;;;;;;12452472;28;20116;-44
2021/07/10 18:03:29;;;;;;;9.27;8.07;;;20.30;99.90;;;;;;12446899;28;20067;-43
2021/07/10 18:09:31;;;;;;;10.45;7.88;;;20.10;99.90;;;;;;12447049;28;20053;-43
2021/07/10 18:15:33;;;;;;;8.98;7.75;;;20.00;99.90;;;;;;12440967;28;20046;-44
2021/07/10 18:21:35;;;;;;;10.05;8.20;;;19.90;99.90;;;;;;12441478;28;20080;-43
2021/07/10 18:27:38;;;;;;;11.82;8.63;;;19.90;99.90;;;;;;12445485;28;20095;-44
2021/07/10 18:33:40;;;;;;;10.15;8.52;;;19.80;99.90;;;;;;12440832;28;20121;-43
2021/07/10 18:39:42;;;;;;;11.88;8.52;;;19.80;99.90;;;;;;12445151;28;20038;-44
2021/07/10 18:45:45;;;;;;;12.48;8.98;;;19.80;99.90;;;;;;12439901;28;20049;-44
2021/07/10 18:51:47;;;;;;;10.38;8.95;;;19.70;99.90;;;;;;12441389;28;20045;-43
2021/07/10 18:57:49;;;;;;;13.00;8.75;;;19.70;99.90;;;;;;12441297;28;20477;-43
2021/07/10 19:03:51;;;;;;;11.60;8.63;;;19.70;99.90;;;;;;12444874;28;20049;-43
2021/07/10 19:09:53;;;;;;;10.48;9.10;;;19.70;99.90;;;;;;12443911;28;20058;-43
2021/07/10 19:15:55;;;;;;;10.07;8.95;;;19.70;99.90;;;;;;12441569;28;20413;-44
2021/07/10 19:21:57;;;;;;;10.90;8.55;;;19.60;99.90;;;;;;12439134;28;20058;-43
2021/07/10 19:27:59;;;;;;;11.52;8.50;;;19.50;99.90;;;;;;12442014;28;20522;-43
2021/07/10 19:34:01;;;;;;;9.70;8.52;;;19.50;99.90;;;;;;12443326;28;20095;-43
2021/07/10 19:40:06;;;;;;;11.52;9.60;;;19.50;99.90;;;;;;12454861;28;20128;-43
2021/07/10 19:46:08;;;;;;;10.60;9.50;;;19.40;99.90;;;;;;12449366;28;20107;-43
2021/07/10 19:52:11;;;;;;;10.27;9.18;;;19.30;99.90;;;;;;12446711;28;20096;-43
2021/07/10 19:58:13;;;;;;;12.00;9.43;;;19.30;99.90;;;;;;12450080;28;20092;-43
2021/07/10 20:04:16;;;;;;;11.80;10.57;;;19.20;99.90;;;;;;12451503;28;20167;-44
2021/07/10 20:10:21;;;;;;;13.55;10.38;;;19.20;99.90;;;;;;12448112;28;20112;-44
2021/07/10 20:16:23;;;;;;;11.35;9.63;;;19.10;99.90;;;;;;12445479;28;20057;-43
2021/07/10 20:22:25;;;;;;;13.50;11.20;;;19.10;99.90;;;;;;12452042;28;20139;-45
2021/07/10 20:28:27;;;;;;;13.27;11.05;;;19.10;99.90;;;;;;12449620;28;20049;-44
2021/07/10 20:34:29;;;;;;;13.10;10.00;;;19.10;99.90;;;;;;12447485;28;20041;-43
2021/07/10 20:40:30;;;;;;;16.70;10.18;;;19.10;99.90;;;;;;12448189;28;20041;-43
2021/07/10 20:46:32;;;;;;;13.90;10.52;;;19.00;99.90;;;;;;12453085;28;20061;-44
2021/07/10 20:52:34;;;;;;;15.43;9.88;;;19.00;99.90;;;;;;12448029;28;20058;-43
2021/07/10 20:58:36;;;;;;;12.32;10.30;;;18.90;99.90;;;;;;12449616;28;20053;-44
2021/07/10 21:04:38;;;;;;;18.38;10.75;;;18.90;99.90;;;;;;12449680;28;20485;-44
2021/07/10 21:10:40;;;;;;;13.13;10.07;;;18.80;99.90;;;;;;12445426;28;20049;-43
2021/07/10 21:16:42;;;;;;;11.43;10.18;;;18.80;99.90;;;;;;12446855;28;20046;-43
2021/07/10 21:22:46;;;;;;;14.75;10.45;;;18.80;99.90;;;;;;12449026;28;20049;-44
2021/07/10 21:28:48;;;;;;;13.02;10.05;;;18.70;99.90;;;;;;12446579;28;20087;-41
2021/07/10 21:34:50;;;;;;;11.43;10.15;;;18.70;99.90;;;;;;12446754;28;20096;-45
2021/07/10 21:40:53;;;;;;;11.90;10.00;;;18.70;99.90;;;;;;12438344;28;20650;-44
2021/07/10 21:46:55;;;;;;;11.23;9.07;;;18.60;99.90;;;;;;12444809;28;20057;-43
2021/07/10 21:52:57;;;;;;;9.90;8.77;;;18.60;99.90;;;;;;12445691;28;20494;-42
2021/07/10 21:58:58;;;;;;;12.00;9.55;;;18.60;99.90;;;;;;12444254;28;20061;-44
2021/07/10 22:05:00;;;;;;;10.57;9.48;;;18.60;99.90;;;;;;12442449;28;20045;-43
2021/07/10 22:11:02;;;;;;;13.07;9.60;;;18.50;99.90;;;;;;12444340;28;20143;-43
2021/07/10 22:17:04;;;;;;;10.90;9.43;;;18.40;99.90;;;;;;12445466;28;20045;-44
2021/07/10 22:23:06;;;;;;;11.60;8.80;;;18.40;99.90;;;;;;12442080;28;20092;-43
2021/07/10 22:29:08;;;;;;;13.45;8.85;;;18.20;99.90;;;;;;12449204;28;22075;-43
2021/07/10 22:35:10;;;;;;;12.55;9.55;;;18.00;99.90;;;;;;12448080;28;20087;-43
2021/07/10 22:41:12;;;;;;;9.93;8.93;;;17.80;99.90;;;;;;12443819;28;20091;-43
2021/07/10 22:47:14;;;;;;;10.98;8.75;;;17.70;99.90;;;;;;12442870;28;20817;-43
2021/07/10 22:53:18;;;;;;;10.35;8.73;;;17.60;99.90;;;;;;12441639;28;20101;-42
2021/07/10 22:59:20;;;;;;;10.18;9.18;;;17.50;99.90;;;;;;12444280;28;20046;-43
2021/07/10 23:05:22;;;;;;;9.85;8.57;;;17.60;99.90;;;;;;12443304;28;20079;-44
2021/07/10 23:11:24;;;;;;;11.45;9.07;;;17.70;99.90;;;;;;12448423;28;20104;-43
2021/07/10 23:17:26;;;;;;;10.52;9.40;;;17.60;99.90;;;;;;12449390;28;20108;-43
2021/07/10 23:23:27;;;;;;;11.77;8.18;;;17.60;99.90;;;;;;12453473;28;20112;-42
2021/07/10 23:29:29;;;;;;;11.68;9.07;;;17.60;99.90;;;;;;12454271;28;20126;-42
2021/07/10 23:35:33;;;;;;;11.35;9.05;;;17.60;99.90;;;;;;12450765;28;20088;-43
2021/07/10 23:41:35;;;;;;;;;;;17.60;99.90;;;;;;12451528;28;20508;-41
2021/07/10 23:47:37;;;;;;;9.35;8.30;;;17.60;99.90;;;;;;12451752;28;20307;-41
2021/07/10 23:53:39;;;;;;;9.98;8.98;;;17.50;99.90;;;;;;12449851;28;20486;-42
2021/07/10 23:59:41;;;;;;;11.00;9.25;;;17.50;99.90;;;;;;12451743;28;20054;-40
